PADQ

Kodiak Airport

Kodiak, Alaska, USA
PADQ 251125Z 2512/2612 27005KT P6SM SKC FM252200 36008KT P6SM FEW030 SCT200
Issued Valid From Valid To
Sep-25 @ 11:25 UTC
(4 hours ago)
Sep-25 @ 12:00 UTC
(3 hours ago)
Sep-26 @ 12:00 UTC
(in 21 hours)
Sep-25 @ 12:00 to Sep-25 @ 22:00
PADQ 251125Z 2512/2612 27005KT P6SM SKC
Wind Visibility Clouds
270° at 5 knots Greater than 6 miles
  • Clear skies
From Sep-25 @ 22:00 to Sep-26 @ 12:00
FM252200 36008KT P6SM FEW030 SCT200
Wind Visibility Clouds
360° at 8 knots Greater than 6 miles
  • Few at 3,000' AGL
  • Scattered at 20,000' AGL
PADQ 251125Z 2512/2612 27005KT P6SM SKC FM252200 36008KT P6SM FEW030 SCT200
Issued Sep-25 @ 11:25 UTC
(4 hours ago)
Valid From Sep-25 @ 12:00 UTC
(3 hours ago)
Valid To Sep-26 @ 12:00 UTC
(in 21 hours)
Sep-25 @ 12:00 - Sep-25 @ 22:00
Wind Visibility
270° at 5 knots Greater than 6 miles
Clouds
  • Clear skies
From Sep-25 @ 22:00 - Sep-26 @ 12:00
Wind Visibility
360° at 8 knots Greater than 6 miles
Clouds
  • Few at 3,000' AGL
  • Scattered at 20,000' AGL